Time;durP1;ratioP1;P1;durP2;ratioP2;P2;SDS_P1;SDS_P2;PMS_P1;PMS_P2;Temp;Humidity;BMP_temperature;BMP_pressure;BME280_temperature;BME280_humidity;BME280_pressure;Samples;Min_cycle;Max_cycle;Signal;HPM_P1;HPM_P2
2023/09/03 00:00:42;;;;;;;0.38;0.38;;;26.10;61.10;;;26.69;45.45;95535.88;5014364;28;20199;-33
2023/09/03 00:03:09;;;;;;;0.35;0.35;;;26.00;61.10;;;26.69;45.36;95537.78;5013634;28;20195;-32
2023/09/03 00:05:37;;;;;;;0.30;0.30;;;26.00;61.20;;;26.68;45.50;95542.38;5013726;28;20194;-34
2023/09/03 00:08:04;;;;;;;0.30;0.30;;;26.00;61.20;;;26.64;45.22;95532.44;5014014;28;20280;-33
2023/09/03 00:10:34;;;;;;;0.30;0.30;;;26.00;61.20;;;26.66;45.74;95528.38;5013918;28;20293;-33
2023/09/03 00:13:04;;;;;;;0.30;0.30;;;26.00;61.20;;;26.65;45.41;95534.84;5013376;28;20204;-34
2023/09/03 00:15:31;;;;;;;0.50;0.50;;;26.00;61.30;;;26.63;45.57;95537.00;5013705;28;20338;-34
2023/09/03 00:17:59;;;;;;;0.30;0.30;;;26.00;61.30;;;26.62;45.44;95538.13;5013220;28;20302;-34
2023/09/03 00:20:26;;;;;;;0.40;0.40;;;26.00;61.30;;;26.59;45.77;95535.19;5013279;28;20538;-33
2023/09/03 00:22:53;;;;;;;0.30;0.30;;;26.00;61.30;;;26.57;45.50;95534.63;5013030;28;20202;-33
2023/09/03 00:25:21;;;;;;;0.30;0.30;;;26.00;61.30;;;26.54;45.68;95530.63;5013205;28;20198;-33
2023/09/03 00:27:48;;;;;;;0.35;0.35;;;25.90;61.20;;;26.51;45.70;95534.69;5013190;28;20623;-33
2023/09/03 00:30:15;;;;;;;0.40;0.40;;;25.90;61.30;;;26.48;45.56;95529.84;5012442;28;20639;-35
2023/09/03 00:32:42;;;;;;;0.40;0.40;;;25.90;61.20;;;26.45;45.64;95529.59;5013165;28;20527;-34
2023/09/03 00:35:10;;;;;;;0.35;0.35;;;25.90;61.30;;;26.43;45.48;95529.09;5012256;28;20678;-32
2023/09/03 00:37:37;;;;;;;0.30;0.30;;;25.80;61.30;;;26.41;45.61;95528.56;5013311;28;20282;-35
2023/09/03 00:40:04;;;;;;;0.35;0.35;;;25.80;61.40;;;26.41;45.73;95523.97;5013009;28;20281;-32
2023/09/03 00:42:33;;;;;;;0.40;0.40;;;25.80;61.40;;;26.42;45.76;95519.41;5013500;28;20688;-32
2023/09/03 00:45:00;;;;;;;0.30;0.30;;;25.80;61.50;;;26.40;45.71;95522.34;5013200;28;20200;-35
2023/09/03 00:47:27;;;;;;;0.40;0.40;;;25.80;61.50;;;26.40;45.85;95511.59;5012008;28;20263;-32
2023/09/03 00:49:55;;;;;;;0.30;0.30;;;25.80;61.50;;;26.38;45.90;95519.16;5012031;28;20195;-32
2023/09/03 00:52:24;;;;;;;0.30;0.30;;;25.80;61.60;;;26.39;45.99;95520.78;5012688;28;20581;-34
2023/09/03 00:54:52;;;;;;;0.40;0.40;;;25.80;61.60;;;26.39;45.81;95525.31;5011766;28;20228;-31
2023/09/03 00:57:19;;;;;;;0.40;0.40;;;25.80;61.60;;;26.35;45.96;95527.75;5012990;28;20214;-32
2023/09/03 00:59:48;;;;;;;0.32;0.32;;;25.80;61.70;;;26.32;46.21;95526.44;5012663;28;20235;-33
2023/09/03 01:02:19;;;;;;;0.25;0.25;;;25.80;61.70;;;26.34;45.75;95526.16;5011829;28;20528;-35
2023/09/03 01:04:46;;;;;;;0.40;0.40;;;25.70;61.50;;;26.32;45.63;95528.34;5012979;28;20192;-31
2023/09/03 01:07:14;;;;;;;0.30;0.30;;;25.70;61.60;;;26.29;45.99;95518.94;5012660;28;20199;-34
2023/09/03 01:09:41;;;;;;;0.38;0.38;;;25.70;61.60;;;26.29;46.22;95527.00;5012846;28;20257;-34
2023/09/03 01:12:25;;;;;;;0.30;0.30;;;25.70;61.60;;;26.30;46.48;95533.97;4995307;28;20212;-32
2023/09/03 01:15:09;;;;;;;0.30;0.30;;;25.70;61.70;;;26.27;45.72;95534.53;5011597;28;20522;-32
2023/09/03 01:17:52;;;;;;;0.30;0.30;;;25.70;61.60;;;26.25;45.67;95546.66;4995283;28;20236;-37
2023/09/03 01:20:26;;;;;;;0.30;0.30;;;25.70;61.60;;;26.21;46.02;95541.03;4995356;28;20611;-34
2023/09/03 01:23:28;;;;;;;0.40;0.40;;;25.70;61.70;;;26.18;45.75;95545.06;5011833;28;20194;-34
2023/09/03 01:26:28;;;;;;;0.40;0.40;;;25.60;61.50;;;26.15;46.26;95547.50;4995271;28;20212;-33
2023/09/03 01:28:56;;;;;;;0.30;0.30;;;25.60;61.60;;;26.12;45.93;95545.34;5013200;28;20176;-33
2023/09/03 01:31:24;;;;;;;0.32;0.32;;;25.60;61.70;;;26.13;46.16;95553.13;5011351;28;20322;-35
2023/09/03 01:33:53;;;;;;;0.30;0.30;;;25.60;61.70;;;26.13;45.98;95555.03;5010631;28;20546;-31
2023/09/03 01:36:20;;;;;;;0.30;0.30;;;25.60;61.80;;;26.15;46.52;95547.50;5012144;28;20212;-35
2023/09/03 01:38:47;;;;;;;0.50;0.50;;;25.50;61.80;;;26.15;46.35;95545.59;4995041;28;20632;-33
2023/09/03 01:41:15;;;;;;;0.30;0.30;;;25.50;61.90;;;26.16;46.14;95549.13;5012429;28;20226;-35
2023/09/03 01:43:42;;;;;;;0.30;0.30;;;25.50;61.90;;;26.19;46.18;95551.25;5012382;28;20200;-34
2023/09/03 01:46:37;;;;;;;0.30;0.30;;;25.50;61.90;;;26.20;46.04;95550.94;5012271;28;20196;-34
2023/09/03 01:49:28;;;;;;;0.30;0.30;;;25.60;62.00;;;26.20;46.29;95550.94;5014306;28;20612;-32
2023/09/03 01:52:35;;;;;;;0.38;0.38;;;25.60;61.90;;;26.18;46.25;95557.69;5012116;28;20198;-35
2023/09/03 01:55:09;;;;;;;0.30;0.30;;;25.60;61.80;;;26.15;46.30;95558.25;5012199;28;20226;-34
2023/09/03 01:57:52;;;;;;;0.45;0.45;;;25.60;61.80;;;26.15;46.53;95561.75;5011170;28;20194;-33
2023/09/03 02:00:20;;;;;;;0.40;0.40;;;25.60;61.90;;;26.15;46.51;95569.81;4994887;28;20202;-32
2023/09/03 02:02:51;;;;;;;0.40;0.40;;;25.60;61.90;;;26.17;46.65;95566.84;5011540;28;20205;-35
2023/09/03 02:05:18;;;;;;;0.20;0.20;;;25.60;61.90;;;26.16;46.25;95563.34;5011083;28;20196;-31
2023/09/03 02:07:45;;;;;;;0.35;0.35;;;25.60;61.90;;;26.16;46.51;95570.63;5011866;28;20298;-32
2023/09/03 02:10:12;;;;;;;0.50;0.50;;;25.60;61.90;;;26.14;46.36;95562.81;5011855;28;20192;-32
2023/09/03 02:12:40;;;;;;;0.50;0.50;;;25.60;61.90;;;26.16;46.60;95568.72;5010836;28;20577;-35
2023/09/03 02:15:07;;;;;;;0.50;0.50;;;25.60;61.90;;;26.17;46.68;95562.28;5011647;28;20637;-35
2023/09/03 02:17:34;;;;;;;0.40;0.40;;;25.60;61.90;;;26.18;46.39;95552.31;5011669;28;20762;-32
2023/09/03 02:20:03;;;;;;;0.30;0.30;;;25.60;61.90;;;26.19;46.42;95551.25;5010743;28;20200;-36
2023/09/03 02:22:30;;;;;;;0.43;0.43;;;25.60;61.90;;;26.20;46.34;95548.25;5010632;28;20678;-32
2023/09/03 02:24:57;;;;;;;0.30;0.30;;;25.60;61.90;;;26.20;46.63;95545.56;5011677;28;20215;-35
2023/09/03 02:27:24;;;;;;;0.40;0.40;;;25.60;62.00;;;26.21;46.37;95543.72;5011848;28;20621;-38
2023/09/03 02:29:51;;;;;;;0.30;0.30;;;25.60;62.00;;;26.23;46.60;95530.78;5012432;28;20224;-33
2023/09/03 02:32:19;;;;;;;0.30;0.30;;;25.60;62.00;;;26.24;46.59;95539.66;5010600;28;20243;-33
2023/09/03 02:34:46;;;;;;;0.40;0.40;;;25.60;62.00;;;26.25;46.35;95534.00;5011683;28;20233;-33
2023/09/03 02:37:15;;;;;;;0.30;0.30;;;25.60;62.00;;;26.25;46.15;95534.00;5010777;28;20205;-33
2023/09/03 02:39:43;;;;;;;0.40;0.40;;;25.60;62.00;;;26.27;46.37;95536.41;5010564;28;20217;-33
2023/09/03 02:42:10;;;;;;;0.35;0.35;;;25.70;63.00;;;26.26;46.18;95532.91;5010430;28;20200;-33
2023/09/03 02:44:37;;;;;;;0.30;0.30;;;25.70;62.10;;;26.27;46.36;95533.72;5010507;28;20301;-33
2023/09/03 02:47:04;;;;;;;0.35;0.35;;;25.70;62.00;;;26.27;46.59;95536.41;5013455;28;20585;-32
2023/09/03 02:49:31;;;;;;;0.30;0.30;;;25.70;62.00;;;26.26;46.56;95535.63;5014777;28;20199;-31
2023/09/03 02:51:58;;;;;;;0.30;0.30;;;25.70;61.90;;;26.24;46.17;95539.66;5013616;28;20215;-33
2023/09/03 02:54:25;;;;;;;0.30;0.30;;;25.70;61.90;;;26.23;46.21;95546.13;5013727;28;20210;-34
2023/09/03 02:56:52;;;;;;;0.30;0.30;;;25.70;61.90;;;26.19;46.23;95543.16;5014878;28;20207;-33
2023/09/03 02:59:19;;;;;;;0.38;0.38;;;25.70;61.90;;;26.14;46.33;95546.69;5014656;28;20203;-35
2023/09/03 03:01:46;;;;;;;0.45;0.45;;;25.60;61.70;;;26.11;46.42;95549.94;5013731;28;20200;-36
2023/09/03 03:04:13;;;;;;;0.30;0.30;;;25.60;61.80;;;26.07;46.57;95548.84;5013402;28;20205;-34
2023/09/03 03:06:40;;;;;;;0.30;0.30;;;25.60;61.70;;;26.03;46.23;95545.88;5014453;28;20270;-32
2023/09/03 03:09:08;;;;;;;0.30;0.30;;;25.60;61.80;;;26.01;46.53;95555.31;5014399;28;20214;-32
2023/09/03 03:11:35;;;;;;;0.30;0.30;;;25.60;61.80;;;25.97;46.66;95557.72;5014656;28;20211;-37
2023/09/03 03:14:02;;;;;;;0.40;0.40;;;25.50;61.90;;;25.94;46.73;95549.41;5013838;28;20272;-32
2023/09/03 03:16:33;;;;;;;0.40;0.40;;;25.50;62.00;;;25.94;46.61;95560.16;5013373;28;20246;-38
2023/09/03 03:19:05;;;;;;;0.40;0.40;;;25.40;61.90;;;25.91;46.61;95553.47;5013608;28;20202;-35
2023/09/03 03:21:35;;;;;;;0.30;0.30;;;25.40;62.00;;;25.89;46.53;95556.44;5013251;28;20281;-34
2023/09/03 03:24:05;;;;;;;0.30;0.30;;;25.40;62.00;;;25.87;46.78;95560.47;5013225;28;20203;-35
2023/09/03 03:26:35;;;;;;;0.60;0.60;;;25.40;62.00;;;25.85;46.96;95557.25;5013148;28;20204;-32
2023/09/03 03:29:04;;;;;;;0.50;0.50;;;25.40;62.10;;;25.83;47.04;95545.94;5013132;28;20219;-32
2023/09/03 03:31:35;;;;;;;0.30;0.30;;;25.30;62.10;;;25.83;46.60;95544.09;5013417;28;20304;-32
2023/09/03 03:34:03;;;;;;;0.30;0.30;;;25.30;62.10;;;25.82;46.79;95547.06;5012904;28;20280;-32
2023/09/03 03:36:32;;;;;;;0.40;0.40;;;25.30;62.10;;;25.82;47.15;95552.44;5013042;28;20194;-33
2023/09/03 03:38:59;;;;;;;0.50;0.50;;;25.30;62.20;;;25.81;47.03;95562.34;5013021;28;20212;-33
2023/09/03 03:41:26;;;;;;;0.50;0.50;;;25.30;62.20;;;25.82;47.43;95565.88;5013000;28;20202;-37
2023/09/03 03:43:54;;;;;;;0.35;0.35;;;25.30;62.30;;;25.83;46.93;95557.53;4997526;28;20228;-31
2023/09/03 03:46:24;;;;;;;0.30;0.30;;;25.30;62.30;;;25.84;47.01;95569.06;5014285;28;20213;-38
2023/09/03 03:48:54;;;;;;;0.40;0.40;;;25.30;62.30;;;25.83;46.77;95560.22;5013801;28;20249;-35
2023/09/03 03:51:21;;;;;;;0.40;0.40;;;25.30;62.40;;;25.85;46.76;95560.75;5013768;28;20647;-33
2023/09/03 03:53:49;;;;;;;0.40;0.40;;;25.30;62.30;;;25.82;46.88;95555.91;5012663;28;20239;-38
2023/09/03 03:56:17;;;;;;;0.40;0.40;;;25.30;62.40;;;25.86;46.76;95556.97;5012717;28;20585;-35
2023/09/03 03:58:46;;;;;;;0.40;0.40;;;25.30;62.30;;;25.87;47.25;95549.72;5012179;28;20299;-32
2023/09/03 04:01:16;;;;;;;0.30;0.30;;;25.30;62.40;;;25.86;47.43;95554.28;5012921;28;20212;-32
2023/09/03 04:03:50;;;;;;;0.40;0.40;;;25.30;62.40;;;25.86;47.32;95556.97;5012573;28;20580;-31
2023/09/03 04:06:18;;;;;;;0.30;0.30;;;25.30;62.40;;;25.86;47.32;95553.47;4997213;28;20266;-37
2023/09/03 04:08:46;;;;;;;0.28;0.28;;;25.30;62.40;;;25.85;46.97;95560.75;5013470;28;20627;-33
2023/09/03 04:11:17;;;;;;;0.40;0.40;;;25.30;62.30;;;25.83;47.42;95556.69;5012399;28;20629;-34
2023/09/03 04:13:44;;;;;;;0.43;0.43;;;25.30;62.30;;;25.80;47.04;95555.38;5013660;28;20196;-32
2023/09/03 04:16:14;;;;;;;0.50;0.50;;;25.30;62.30;;;25.79;47.14;95564.50;5012382;28;20200;-34
2023/09/03 04:18:45;;;;;;;0.30;0.30;;;25.30;62.30;;;25.79;46.97;95555.66;5012512;28;20212;-33
2023/09/03 04:21:12;;;;;;;0.52;0.52;;;25.30;62.40;;;25.76;47.06;95557.00;5012621;28;20213;-34
2023/09/03 04:23:39;;;;;;;0.30;0.30;;;25.30;62.30;;;25.75;47.11;95552.69;5012356;28;20214;-33
2023/09/03 04:26:09;;;;;;;0.30;0.30;;;25.30;62.40;;;25.75;46.98;95562.66;5012572;28;20230;-31
2023/09/03 04:28:49;;;;;;;0.45;0.45;;;25.30;62.30;;;25.73;47.22;95560.22;5012269;28;20208;-34
2023/09/03 04:31:17;;;;;;;0.30;0.30;;;25.30;62.30;;;25.73;47.53;95558.34;5013141;28;20276;-37
2023/09/03 04:33:45;;;;;;;0.30;0.30;;;25.30;62.40;;;25.76;47.49;95562.38;5012362;28;20195;-36
2023/09/03 04:36:13;;;;;;;0.40;0.40;;;25.30;62.40;;;25.75;47.31;95563.44;5012128;28;20209;-32
2023/09/03 04:38:40;;;;;;;0.50;0.50;;;25.30;62.50;;;25.78;47.22;95579.03;5012044;28;20209;-34
2023/09/03 04:41:07;;;;;;;0.22;0.22;;;25.30;62.50;;;25.79;47.06;95587.88;5012066;28;20217;-33
2023/09/03 04:43:46;;;;;;;0.30;0.30;;;25.30;62.50;;;25.79;47.32;95585.22;5012091;28;20193;-32
2023/09/03 04:46:17;;;;;;;0.40;0.40;;;25.30;62.50;;;25.78;47.09;95589.78;5012501;28;20225;-34
2023/09/03 04:48:44;;;;;;;0.38;0.38;;;25.30;62.40;;;25.76;47.41;95589.25;5012095;28;20201;-35
2023/09/03 04:51:11;;;;;;;0.50;0.50;;;25.30;62.40;;;25.77;47.18;95600.78;5011982;28;20235;-31
2023/09/03 04:53:40;;;;;;;0.30;0.30;;;25.30;62.50;;;25.77;47.41;95608.84;5011771;28;20252;-34
2023/09/03 04:56:12;;;;;;;0.50;0.50;;;25.30;62.50;;;25.77;47.57;95604.28;5011962;28;20235;-34
2023/09/03 04:58:41;;;;;;;0.30;0.30;;;25.20;62.50;;;25.77;46.98;95615.03;5011885;28;20198;-32
2023/09/03 05:01:17;;;;;;;0.40;0.40;;;25.30;62.50;;;25.79;47.04;95614.75;5013063;28;20193;-36
2023/09/03 05:03:48;;;;;;;0.55;0.55;;;25.30;62.60;;;25.78;47.11;95615.84;5011676;28;20252;-32
2023/09/03 05:06:18;;;;;;;0.40;0.40;;;25.30;62.50;;;25.79;47.60;95617.44;5011985;28;20218;-31
2023/09/03 05:08:48;;;;;;;0.38;0.38;;;25.30;62.50;;;25.81;47.49;95626.06;5010847;28;20215;-34
2023/09/03 05:11:16;;;;;;;0.30;0.30;;;25.30;62.50;;;25.80;47.22;95621.75;5011740;28;20204;-32
2023/09/03 05:13:45;;;;;;;0.30;0.30;;;25.30;62.50;;;25.81;47.35;95628.75;5012688;28;20208;-35
2023/09/03 05:16:14;;;;;;;0.40;0.40;;;25.30;62.50;;;25.80;47.38;95635.19;5011348;28;20247;-34
2023/09/03 05:18:42;;;;;;;0.40;0.40;;;25.30;62.50;;;25.77;47.30;95633.84;5011581;28;20201;-33
2023/09/03 05:21:10;;;;;;;0.38;0.38;;;25.30;62.50;;;25.78;47.34;95634.66;5011959;28;20571;-33
2023/09/03 05:23:38;;;;;;;0.30;0.30;;;25.30;62.50;;;25.78;47.56;95637.34;5011350;28;20306;-31
2023/09/03 05:26:06;;;;;;;0.32;0.32;;;25.30;62.50;;;25.79;47.52;95631.69;5011445;28;20753;-34
2023/09/03 05:28:35;;;;;;;0.40;0.40;;;25.30;62.50;;;25.78;47.59;95629.28;5011391;28;20224;-33
2023/09/03 05:31:02;;;;;;;0.40;0.40;;;25.30;62.60;;;25.79;47.34;95620.94;4995250;28;20238;-32
2023/09/03 05:33:31;;;;;;;0.30;0.30;;;25.30;62.50;;;25.80;47.72;95629.81;5011584;28;20204;-34
2023/09/03 05:35:58;;;;;;;0.40;0.40;;;25.30;62.60;;;25.80;47.76;95627.13;5011439;28;20224;-31
2023/09/03 05:38:25;;;;;;;0.30;0.30;;;25.30;62.60;;;25.79;47.50;95629.00;5011289;28;20211;-35
2023/09/03 05:40:53;;;;;;;0.20;0.20;;;25.30;62.60;;;25.79;47.75;95628.19;5012247;28;20204;-35
2023/09/03 05:43:20;;;;;;;0.40;0.40;;;25.30;62.60;;;25.79;47.47;95629.00;4995161;28;20262;-36
2023/09/03 05:45:53;;;;;;;0.30;0.30;;;25.30;62.60;;;25.79;47.38;95634.38;5011563;28;20206;-32
2023/09/03 05:48:20;;;;;;;0.50;0.50;;;25.30;62.60;;;25.79;47.41;95626.31;5011157;28;20227;-34
2023/09/03 05:50:55;;;;;;;0.30;0.30;;;25.30;62.60;;;25.79;47.27;95631.69;5012113;28;20195;-33
2023/09/03 05:53:23;;;;;;;0.22;0.22;;;25.30;62.60;;;25.79;47.48;95631.69;5011943;28;20251;-34
2023/09/03 05:55:50;;;;;;;0.52;0.52;;;25.30;62.60;;;25.79;47.56;95634.38;5011973;28;20300;-34
2023/09/03 05:58:17;;;;;;;0.32;0.32;;;25.30;62.60;;;25.79;47.38;95629.00;5011013;28;20215;-35
2023/09/03 06:00:46;;;;;;;0.38;0.38;;;25.30;62.60;;;25.80;47.30;95627.13;5011054;28;20218;-33
2023/09/03 06:03:13;;;;;;;0.30;0.30;;;25.30;62.50;;;25.79;47.25;95642.44;5010945;28;20303;-36
2023/09/03 06:05:42;;;;;;;0.40;0.40;;;25.30;62.60;;;25.79;47.54;95649.69;5010868;28;20244;-37
2023/09/03 06:08:09;;;;;;;0.30;0.30;;;25.30;62.60;;;25.78;47.52;95651.59;5012031;28;20289;-36
2023/09/03 06:10:38;;;;;;;0.30;0.30;;;25.30;62.70;;;25.79;47.48;95644.31;5012387;28;20201;-33
2023/09/03 06:13:05;;;;;;;0.38;0.38;;;25.30;62.60;;;25.79;47.57;95649.69;5011870;28;20202;-34
2023/09/03 06:15:32;;;;;;;0.52;0.52;;;25.30;62.60;;;25.80;47.53;95651.31;5011636;28;20244;-33
2023/09/03 06:17:59;;;;;;;0.30;0.30;;;25.30;62.60;;;25.80;47.72;95649.41;5011737;28;20241;-32
2023/09/03 06:20:26;;;;;;;0.30;0.30;;;25.40;62.70;;;25.81;47.50;95652.94;5012706;28;20278;-32
2023/09/03 06:22:54;;;;;;;0.30;0.30;;;25.40;62.70;;;25.80;47.92;95652.09;5015084;28;20197;-35
2023/09/03 06:25:21;;;;;;;0.30;0.30;;;25.40;62.70;;;25.82;47.75;95651.84;5015075;28;20203;-35
2023/09/03 06:27:48;;;;;;;0.38;0.38;;;25.40;62.70;;;25.82;47.43;95654.53;5015306;28;20234;-35
2023/09/03 06:30:15;;;;;;;0.40;0.40;;;25.40;62.70;;;25.82;47.29;95651.84;5015357;28;20578;-34
2023/09/03 06:32:42;;;;;;;0.30;0.30;;;25.40;62.70;;;25.82;48.09;95649.16;5015225;28;20276;-32
2023/09/03 06:35:09;;;;;;;0.40;0.40;;;25.40;62.70;;;25.82;47.62;95652.66;5015065;28;20219;-33
2023/09/03 06:37:36;;;;;;;0.30;0.30;;;25.40;62.70;;;25.84;47.73;95660.44;5015133;28;20202;-35
2023/09/03 06:40:04;;;;;;;0.30;0.30;;;25.40;62.70;;;25.84;47.84;95660.44;5014980;28;20692;-34
2023/09/03 06:42:31;;;;;;;0.30;0.30;;;25.40;62.70;;;25.85;47.46;95673.63;5014892;28;20196;-34
2023/09/03 06:44:58;;;;;;;0.40;0.40;;;25.40;62.70;;;25.85;47.73;95667.44;5015484;28;20207;-33
2023/09/03 06:47:25;;;;;;;0.30;0.30;;;25.40;62.60;;;25.85;47.80;95668.25;5014799;28;20209;-34
2023/09/03 06:49:52;;;;;;;0.30;0.30;;;25.40;62.70;;;25.85;47.63;95662.03;5014716;28;20516;-33
2023/09/03 06:52:19;;;;;;;0.30;0.30;;;25.40;62.70;;;25.86;47.66;95672.53;5014710;28;20199;-36
2023/09/03 06:54:47;;;;;;;0.47;0.47;;;25.50;62.70;;;25.85;47.77;95672.81;5014792;28;20220;-34
2023/09/03 06:57:14;;;;;;;0.55;0.55;;;25.40;62.70;;;25.84;47.46;95671.19;5015151;28;20196;-35
2023/09/03 06:59:55;;;;;;;0.50;0.50;;;25.40;62.70;;;25.82;47.38;95681.41;5015155;28;20181;-33
2023/09/03 07:02:23;;;;;;;0.40;0.40;;;25.40;62.70;;;25.81;47.89;95694.03;5014560;28;20198;-32
2023/09/03 07:04:51;;;;;;;0.40;0.40;;;25.40;62.70;;;25.81;47.36;95695.94;5015070;28;20196;-32
2023/09/03 07:07:18;;;;;;;0.60;0.60;;;25.40;62.80;;;25.80;47.72;95702.38;5014427;28;20215;-37
2023/09/03 07:09:45;;;;;;;0.38;0.38;;;25.40;62.80;;;25.80;47.75;95700.47;5014589;28;20193;-35
2023/09/03 07:12:12;;;;;;;0.30;0.30;;;25.30;62.80;;;25.78;47.43;95697.28;5014392;28;20217;-33
2023/09/03 07:14:39;;;;;;;0.20;0.20;;;25.30;62.80;;;25.79;47.71;95701.53;5014404;28;20292;-38
2023/09/03 07:17:07;;;;;;;0.50;0.50;;;25.30;62.80;;;25.78;47.73;95701.81;5014442;28;20229;-35
2023/09/03 07:19:34;;;;;;;0.25;0.25;;;25.30;62.70;;;25.77;47.90;95706.41;5014170;28;20665;-34
2023/09/03 07:22:01;;;;;;;0.30;0.30;;;25.30;62.80;;;25.77;47.87;95705.59;5014536;28;20237;-36
2023/09/03 07:24:28;;;;;;;0.30;0.30;;;25.30;62.90;;;25.75;47.85;95705.84;5014058;28;20663;-33
2023/09/03 07:26:55;;;;;;;0.30;0.30;;;25.30;63.00;;;25.76;47.86;95707.47;5014423;28;20637;-33
2023/09/03 07:29:22;;;;;;;0.35;0.35;;;25.30;63.00;;;25.75;48.27;95703.16;5014353;28;20201;-34
2023/09/03 07:31:49;;;;;;;0.28;0.28;;;25.30;63.00;;;25.76;47.96;95709.38;5013192;28;20201;-33
2023/09/03 07:34:16;;;;;;;0.40;0.40;;;25.30;63.00;;;25.75;48.19;95713.13;5014263;28;20276;-33
2023/09/03 07:36:43;;;;;;;0.30;0.30;;;25.30;63.00;;;25.77;48.06;95716.31;5013949;28;20652;-34
2023/09/03 07:39:10;;;;;;;0.30;0.30;;;25.30;63.10;;;25.77;47.98;95724.38;5014005;28;20212;-35
2023/09/03 07:41:39;;;;;;;0.30;0.30;;;25.30;63.00;;;25.78;47.71;95729.50;5014025;28;20245;-38
2023/09/03 07:44:08;;;;;;;0.40;0.40;;;25.30;63.00;;;25.79;48.25;95736.47;5013875;28;20318;-36
2023/09/03 07:46:35;;;;;;;0.40;0.40;;;25.30;63.10;;;25.80;48.27;95740.00;5013608;28;20279;-35
2023/09/03 07:49:02;;;;;;;0.30;0.30;;;25.30;63.20;;;25.79;48.12;95741.84;5013854;28;20214;-33
2023/09/03 07:51:29;;;;;;;0.35;0.35;;;25.30;63.10;;;25.80;48.18;95734.63;5013829;28;20224;-32
2023/09/03 07:53:56;;;;;;;0.40;0.40;;;25.30;63.10;;;25.80;48.17;95729.25;5013972;28;20198;-34
2023/09/03 07:56:23;;;;;;;0.40;0.40;;;25.30;63.10;;;25.79;48.04;95727.63;5014087;28;20324;-33
2023/09/03 07:58:50;;;;;;;0.38;0.38;;;25.30;63.10;;;25.79;47.83;95730.31;5014211;28;20189;-32
2023/09/03 08:01:19;;;;;;;0.20;0.20;;;25.30;63.10;;;25.79;48.13;95731.09;5013635;28;20266;-33
2023/09/03 08:03:46;;;;;;;0.20;0.20;;;25.30;63.10;;;25.80;48.17;95731.94;5013590;28;20197;-35
2023/09/03 08:06:14;;;;;;;0.50;0.50;;;25.30;63.10;;;25.81;47.96;95733.53;4997054;28;20204;-37
2023/09/03 08:08:41;;;;;;;0.30;0.30;;;25.30;63.10;;;25.81;48.27;95736.22;5013932;28;20197;-33
2023/09/03 08:11:08;;;;;;;0.30;0.30;;;25.30;63.20;;;25.81;48.42;95739.72;5013465;28;20221;-34
2023/09/03 08:13:35;;;;;;;0.30;0.30;;;25.30;63.20;;;25.82;48.12;95740.53;5013676;28;20291;-33
2023/09/03 08:16:03;;;;;;;0.40;0.40;;;25.40;63.30;;;25.82;48.26;95740.53;5012110;28;20279;-36
2023/09/03 08:18:30;;;;;;;0.40;0.40;;;25.40;63.40;;;25.82;48.11;95749.41;5013362;28;20316;-34
2023/09/03 08:20:58;;;;;;;0.40;0.40;;;25.40;63.30;;;25.83;47.99;95753.69;5012656;28;20556;-34
2023/09/03 08:23:25;;;;;;;0.40;0.40;;;25.40;63.40;;;25.83;48.34;95752.88;5011890;28;20723;-37
2023/09/03 08:25:52;;;;;;;0.40;0.40;;;25.40;63.30;;;25.83;48.10;95753.69;5013595;28;20246;-35
2023/09/03 08:28:19;;;;;;;0.25;0.25;;;25.30;63.20;;;25.84;48.26;95757.19;5013321;28;20203;-35
2023/09/03 08:30:47;;;;;;;0.30;0.30;;;25.40;63.40;;;25.84;48.53;95757.19;5013728;28;20193;-37
2023/09/03 08:33:14;;;;;;;0.50;0.50;;;25.40;63.50;;;25.85;48.56;95753.41;5013206;28;20202;-34
2023/09/03 08:35:41;;;;;;;0.40;0.40;;;25.40;63.30;;;25.86;48.26;95755.03;5013529;28;20245;-33
2023/09/03 08:38:09;;;;;;;0.40;0.40;;;25.30;63.30;;;25.85;48.36;95761.47;5013136;28;20252;-35
2023/09/03 08:40:36;;;;;;;0.30;0.30;;;25.40;63.50;;;25.85;48.07;95754.25;5013163;28;20185;-35
2023/09/03 08:43:07;;;;;;;0.75;0.75;;;25.40;63.50;;;25.86;48.29;95757.72;5012938;28;20205;-33
2023/09/03 08:45:51;;;;;;;0.63;0.63;;;25.40;63.50;;;25.85;48.86;95761.47;5013943;28;20290;-34
2023/09/03 08:48:18;;;;;;;0.40;0.40;;;25.40;63.50;;;25.87;48.12;95759.34;4993802;28;20201;-36
2023/09/03 08:50:46;;;;;;;0.52;0.52;;;25.40;63.40;;;25.88;48.53;95755.59;5012212;28;20629;-33
2023/09/03 08:53:14;;;;;;;0.50;0.50;;;25.40;63.40;;;25.88;48.02;95752.91;5012889;28;20230;-39
2023/09/03 08:55:42;;;;;;;0.40;0.40;;;25.40;63.40;;;25.89;48.15;95758.00;5012760;28;20579;-35
2023/09/03 08:58:09;;;;;;;0.60;0.60;;;25.40;63.40;;;25.91;48.29;95765.00;5012217;28;20277;-36
2023/09/03 09:00:38;;;;;;;0.60;0.60;;;25.40;63.40;;;25.92;48.24;95775.47;5012761;28;20205;-35
2023/09/03 09:03:11;;;;;;;0.50;0.50;;;25.40;63.40;;;25.92;48.38;95777.34;5012725;28;20196;-34
2023/09/03 09:05:41;;;;;;;0.50;0.50;;;25.40;63.50;;;25.92;48.58;95774.66;5013240;28;20186;-33
2023/09/03 09:08:09;;;;;;;0.40;0.40;;;25.50;63.50;;;25.94;48.48;95785.94;5013289;28;20189;-32
2023/09/03 09:10:43;;;;;;;0.40;0.40;;;25.50;63.40;;;25.94;48.32;95791.31;5012582;28;20220;-32
2023/09/03 09:13:11;;;;;;;0.30;0.30;;;25.50;63.40;;;25.92;48.61;95799.66;5010021;28;20542;-34
2023/09/03 09:15:42;;;;;;;0.32;0.32;;;25.50;63.50;;;25.96;48.35;95802.63;5010993;28;20220;-33
2023/09/03 09:18:10;;;;;;;0.40;0.40;;;25.50;63.40;;;25.96;48.50;95784.59;5012400;28;20235;-36
2023/09/03 09:20:40;;;;;;;0.38;0.38;;;25.50;63.40;;;25.97;48.13;95798.84;5012756;28;20194;-33
2023/09/03 09:23:08;;;;;;;0.50;0.50;;;25.50;63.40;;;25.97;48.70;95796.97;5012628;28;20292;-35
2023/09/03 09:25:36;;;;;;;0.60;0.60;;;25.50;63.40;;;25.98;48.71;95787.03;4995589;28;20208;-35
2023/09/03 09:28:13;;;;;;;0.60;0.60;;;25.50;63.40;;;25.98;48.41;95777.06;5000808;28;20208;-37
2023/09/03 09:31:10;;;;;;;0.50;0.50;;;25.50;63.40;;;25.96;48.75;95781.09;4993106;28;20266;-32
2023/09/03 09:33:50;;;;;;;0.47;0.47;;;25.50;63.40;;;25.98;48.32;95771.69;4991820;28;20301;-35
2023/09/03 09:36:17;;;;;;;0.50;0.50;;;25.50;63.40;;;25.98;48.24;95774.38;4992762;28;20647;-35
2023/09/03 09:38:44;;;;;;;0.40;0.40;;;25.50;63.40;;;26.00;48.88;95782.19;4991698;28;20548;-32
2023/09/03 09:41:26;;;;;;;0.43;0.43;;;25.50;63.40;;;25.99;48.79;95784.06;4992639;28;20222;-32
2023/09/03 09:43:53;;;;;;;0.40;0.40;;;25.50;63.40;;;25.99;48.14;95785.97;4993121;28;20568;-33
2023/09/03 09:46:33;;;;;;;0.40;0.40;;;25.50;63.30;;;25.99;48.29;95770.63;4996988;28;20205;-32
2023/09/03 09:49:02;;;;;;;0.40;0.40;;;25.50;63.40;;;26.00;48.89;95764.19;5012381;28;20192;-32
2023/09/03 09:51:30;;;;;;;0.60;0.60;;;25.60;63.40;;;26.01;48.67;95765.81;5012403;28;20223;-36
2023/09/03 09:54:03;;;;;;;0.30;0.30;;;25.60;63.50;;;26.03;48.33;95768.22;5012434;28;20200;-32
2023/09/03 09:56:34;;;;;;;0.40;0.40;;;25.60;63.40;;;26.02;48.18;95764.72;5014529;28;20228;-35
2023/09/03 09:59:03;;;;;;;0.30;0.30;;;25.60;63.50;;;26.03;48.30;95777.06;5015546;28;20193;-32
2023/09/03 10:01:46;;;;;;;0.30;0.30;;;25.60;63.50;;;26.05;48.58;95774.13;5015467;28;20576;-33
2023/09/03 10:04:13;;;;;;;0.40;0.40;;;25.60;63.40;;;26.03;48.35;95768.22;5016031;28;20187;-36
2023/09/03 10:06:40;;;;;;;0.45;0.45;;;25.60;63.40;;;26.03;48.37;95778.97;5016265;28;20286;-34
2023/09/03 10:09:08;;;;;;;0.40;0.40;;;25.60;63.40;;;26.04;48.03;95767.13;5014782;28;20216;-37
2023/09/03 10:11:35;;;;;;;0.40;0.40;;;25.60;63.40;;;26.04;48.10;95759.88;5015605;28;20294;-32
2023/09/03 10:14:02;;;;;;;0.30;0.30;;;25.60;63.40;;;26.05;48.52;95753.41;5015301;28;20700;-34
2023/09/03 10:16:31;;;;;;;0.30;0.30;;;25.60;63.40;;;26.06;48.41;95756.91;5014447;28;20232;-32
2023/09/03 10:19:03;;;;;;;0.40;0.40;;;25.60;63.40;;;26.08;48.32;95754.78;5014371;28;20225;-37
2023/09/03 10:21:32;;;;;;;0.40;0.40;;;25.60;63.40;;;26.08;48.40;95760.16;5014772;28;20225;-32
2023/09/03 10:24:09;;;;;;;0.30;0.30;;;25.60;63.30;;;26.09;48.65;95761.78;5014686;28;20190;-35
2023/09/03 10:26:44;;;;;;;0.40;0.40;;;25.60;63.30;;;26.10;48.27;95768.78;5030965;28;20533;-34
2023/09/03 10:29:14;;;;;;;0.40;0.40;;;25.60;63.20;;;26.11;48.52;95772.25;5015665;28;20218;-36